createdAt,value
2017-11-05T00:01:22.900Z,32.13
2017-11-05T00:03:50.357Z,31.93
2017-11-05T00:06:17.772Z,31.13
2017-11-05T00:08:45.190Z,30.57
2017-11-05T00:11:12.628Z,30.70
2017-11-05T00:13:40.044Z,29.87
2017-11-05T00:16:07.464Z,31.47
2017-11-05T00:18:34.893Z,32.00
2017-11-05T00:21:02.312Z,29.90
2017-11-05T00:23:29.729Z,30.67
2017-11-05T00:25:57.165Z,30.60
2017-11-05T00:28:24.583Z,30.10
2017-11-05T00:30:51.996Z,27.57
2017-11-05T00:33:19.428Z,29.47
2017-11-05T00:35:46.859Z,30.27
2017-11-05T00:38:14.277Z,31.57
2017-11-05T00:40:41.661Z,29.83
2017-11-05T00:43:09.136Z,30.33
2017-11-05T00:45:36.550Z,30.80
2017-11-05T00:48:03.965Z,29.47
2017-11-05T00:50:31.418Z,29.30
2017-11-05T00:52:58.839Z,29.53
2017-11-05T00:55:26.267Z,27.47
2017-11-05T00:57:53.688Z,28.00
2017-11-05T01:00:21.112Z,28.40
2017-11-05T01:02:48.531Z,29.13
2017-11-05T01:05:15.963Z,29.00
2017-11-05T01:07:43.388Z,29.57
2017-11-05T01:10:10.804Z,31.00
2017-11-05T01:12:38.232Z,28.53
2017-11-05T01:15:05.652Z,29.67
2017-11-05T01:17:33.088Z,30.83
2017-11-05T01:20:00.518Z,28.63
2017-11-05T01:22:27.931Z,30.60
2017-11-05T01:24:55.374Z,30.10
2017-11-05T01:27:22.800Z,33.30
2017-11-05T01:29:50.224Z,30.73
2017-11-05T01:32:17.669Z,31.27
2017-11-05T01:34:45.088Z,28.57
2017-11-05T01:37:12.508Z,30.70
2017-11-05T01:39:40.608Z,30.90
2017-11-05T01:42:08.024Z,33.33
2017-11-05T01:44:35.465Z,32.73
2017-11-05T01:47:02.888Z,32.50
2017-11-05T01:49:30.308Z,34.43
2017-11-05T01:51:58.679Z,35.53
2017-11-05T01:54:26.332Z,33.13
2017-11-05T01:56:56.893Z,35.83
2017-11-05T01:59:24.324Z,34.97
2017-11-05T02:01:52.292Z,34.10
2017-11-05T02:04:19.764Z,37.50
2017-11-05T02:06:47.584Z,35.03
2017-11-05T02:09:15.017Z,36.40
2017-11-05T02:11:42.447Z,34.40
2017-11-05T02:14:09.873Z,33.27
2017-11-05T02:16:37.387Z,32.30
2017-11-05T02:19:04.829Z,32.00
2017-11-05T02:21:32.244Z,34.50
2017-11-05T02:23:59.683Z,36.03
2017-11-05T02:26:27.116Z,35.17
2017-11-05T02:28:54.539Z,34.73
2017-11-05T02:31:21.996Z,33.70
2017-11-05T02:33:49.478Z,31.23
2017-11-05T02:36:16.898Z,34.60
2017-11-05T02:38:44.327Z,34.43
2017-11-05T02:41:11.760Z,31.93
2017-11-05T02:43:39.185Z,35.53
2017-11-05T02:46:06.617Z,32.40
2017-11-05T02:48:34.053Z,34.70
2017-11-05T02:51:01.472Z,35.70
2017-11-05T02:53:28.904Z,34.53
2017-11-05T02:55:56.324Z,32.37
2017-11-05T02:58:23.739Z,34.67
2017-11-05T03:00:58.357Z,35.40
2017-11-05T03:03:25.802Z,34.53
2017-11-05T03:05:53.227Z,33.63
2017-11-05T03:08:20.648Z,33.73
2017-11-05T03:10:48.061Z,35.90
2017-11-05T03:13:15.497Z,33.50
2017-11-05T03:15:42.911Z,35.30
2017-11-05T03:18:10.331Z,34.13
2017-11-05T03:20:37.773Z,34.40
2017-11-05T03:23:05.192Z,34.27
2017-11-05T03:25:32.616Z,34.57
2017-11-05T03:28:00.052Z,35.03
2017-11-05T03:30:29.652Z,34.03
2017-11-05T03:32:57.068Z,33.33
2017-11-05T03:35:24.520Z,33.33
2017-11-05T03:37:54.507Z,34.63
2017-11-05T03:40:21.928Z,33.80
2017-11-05T03:42:49.359Z,33.73
2017-11-05T03:45:16.775Z,32.83
2017-11-05T03:47:44.228Z,33.93
2017-11-05T03:50:11.660Z,35.17
2017-11-05T03:52:39.093Z,34.20
2017-11-05T03:55:06.516Z,37.57
2017-11-05T03:57:33.943Z,32.60
2017-11-05T04:00:01.360Z,34.43
2017-11-05T04:02:28.800Z,35.60
2017-11-05T04:04:56.215Z,34.90
2017-11-05T04:07:23.632Z,35.67
2017-11-05T04:09:51.078Z,34.37
2017-11-05T04:12:18.491Z,34.10
2017-11-05T04:14:45.915Z,35.20
2017-11-05T04:17:13.348Z,33.57
2017-11-05T04:19:40.769Z,32.53
2017-11-05T04:22:08.188Z,33.10
2017-11-05T04:24:35.621Z,33.80
2017-11-05T04:27:03.044Z,33.63
2017-11-05T04:29:30.460Z,35.20
2017-11-05T04:31:57.888Z,34.83
2017-11-05T04:34:25.307Z,35.47
2017-11-05T04:36:52.740Z,35.90
2017-11-05T04:39:20.169Z,34.93
2017-11-05T04:41:47.591Z,33.60
2017-11-05T04:44:15.029Z,35.60
2017-11-05T04:46:42.444Z,33.07
2017-11-05T04:49:09.864Z,35.07
2017-11-05T04:51:37.300Z,33.20
2017-11-05T04:54:04.719Z,34.90
2017-11-05T04:56:32.148Z,33.67
2017-11-05T04:58:59.600Z,34.47
2017-11-05T05:01:27.008Z,34.60
2017-11-05T05:03:54.448Z,36.37
2017-11-05T05:06:21.863Z,35.53
2017-11-05T05:08:49.280Z,32.53
2017-11-05T05:11:16.736Z,35.47
2017-11-05T05:13:44.156Z,33.50
2017-11-05T05:16:11.576Z,35.40
2017-11-05T05:18:39.016Z,34.67
2017-11-05T05:21:06.444Z,32.87
2017-11-05T05:23:33.873Z,32.57
2017-11-05T05:26:01.306Z,31.83
2017-11-05T05:28:28.724Z,32.13
2017-11-05T05:30:56.136Z,31.80
2017-11-05T05:33:23.564Z,33.43
2017-11-05T05:35:50.979Z,34.17
2017-11-05T05:38:18.419Z,31.70
2017-11-05T05:40:45.839Z,32.67
2017-11-05T05:43:13.257Z,34.30
2017-11-05T05:45:40.688Z,33.47
2017-11-05T05:48:08.107Z,32.67
2017-11-05T05:50:35.545Z,32.70
2017-11-05T05:53:02.963Z,32.90
2017-11-05T05:55:30.380Z,32.10
2017-11-05T05:57:57.831Z,31.37
2017-11-05T06:00:25.252Z,32.00
2017-11-05T06:02:52.675Z,31.20
2017-11-05T06:05:20.071Z,32.97
2017-11-05T06:07:47.532Z,31.20
2017-11-05T06:10:14.972Z,31.33
2017-11-05T06:12:42.400Z,30.73
2017-11-05T06:15:09.824Z,30.73
2017-11-05T06:17:37.264Z,28.73
2017-11-05T06:20:04.680Z,22.10
2017-11-05T06:22:32.127Z,25.90
2017-11-05T06:24:59.548Z,24.70
2017-11-05T06:27:26.971Z,24.70
2017-11-05T06:29:54.399Z,26.50
2017-11-05T06:32:21.825Z,25.73
2017-11-05T06:34:49.265Z,27.10
2017-11-05T06:37:16.684Z,28.40
2017-11-05T06:39:44.107Z,27.07
2017-11-05T06:42:11.544Z,27.40
2017-11-05T06:44:38.968Z,26.70
2017-11-05T06:47:06.397Z,26.33
2017-11-05T06:49:33.832Z,24.83
2017-11-05T06:52:01.255Z,25.63
2017-11-05T06:54:28.704Z,26.63
2017-11-05T06:56:56.124Z,27.27
2017-11-05T06:59:23.569Z,27.87
2017-11-05T07:01:51.003Z,25.57
2017-11-05T07:04:18.428Z,26.63
2017-11-05T07:06:45.848Z,26.30
2017-11-05T07:09:13.292Z,25.17
2017-11-05T07:11:40.716Z,23.83
2017-11-05T07:14:08.136Z,25.00
2017-11-05T07:16:35.578Z,25.13
2017-11-05T07:19:02.996Z,23.30
2017-11-05T07:21:30.420Z,26.87
2017-11-05T07:23:57.851Z,24.90
2017-11-05T07:26:25.279Z,25.93
2017-11-05T07:28:52.720Z,26.30
2017-11-05T07:31:20.138Z,25.07
2017-11-05T07:33:47.563Z,25.50
2017-11-05T07:36:15.000Z,26.23
2017-11-05T07:38:42.416Z,25.90
2017-11-05T07:41:09.866Z,25.57
2017-11-05T07:43:37.275Z,24.67
2017-11-05T07:46:04.704Z,22.80
2017-11-05T07:48:32.139Z,24.60
2017-11-05T07:51:00.429Z,24.67
2017-11-05T07:53:27.860Z,25.60
2017-11-05T07:55:55.284Z,23.93
2017-11-05T07:58:22.708Z,21.07
2017-11-05T08:00:50.152Z,23.07
2017-11-05T08:03:17.576Z,21.27
2017-11-05T08:05:44.995Z,19.93
2017-11-05T08:08:12.443Z,24.17
2017-11-05T08:10:39.879Z,22.20
2017-11-05T08:13:07.299Z,24.50
2017-11-05T08:15:34.734Z,26.83
2017-11-05T08:18:02.156Z,24.47
2017-11-05T08:20:29.599Z,25.50
2017-11-05T08:22:57.016Z,25.10
2017-11-05T08:25:24.436Z,26.40
2017-11-05T08:27:51.873Z,27.87
2017-11-05T08:30:19.292Z,25.80
2017-11-05T08:32:46.735Z,26.60
2017-11-05T08:35:14.159Z,25.03
2017-11-05T08:37:41.582Z,26.90
2017-11-05T08:40:09.023Z,25.23
2017-11-05T08:42:36.448Z,22.50
2017-11-05T08:45:03.896Z,20.73
2017-11-05T08:47:31.338Z,15.63
2017-11-05T08:49:58.754Z,11.90
2017-11-05T08:52:26.186Z,10.57
2017-11-05T08:54:53.616Z,9.80
2017-11-05T08:57:21.031Z,9.17
2017-11-05T08:59:48.421Z,8.33
2017-11-05T09:02:15.887Z,7.80
2017-11-05T09:04:43.304Z,7.23
2017-11-05T09:07:10.717Z,7.40
2017-11-05T09:09:38.179Z,7.90
2017-11-05T09:12:05.588Z,7.40
2017-11-05T09:14:33.032Z,8.00
2017-11-05T09:17:00.440Z,7.23
2017-11-05T09:19:27.864Z,7.67
2017-11-05T09:21:55.305Z,8.30
2017-11-05T09:24:22.724Z,8.60
2017-11-05T09:26:50.178Z,6.60
2017-11-05T09:29:17.607Z,7.90
2017-11-05T09:31:45.088Z,6.90
2017-11-05T09:34:12.528Z,7.00
2017-11-05T09:36:39.961Z,5.80
2017-11-05T09:39:07.398Z,5.40
2017-11-05T09:41:34.865Z,4.90
2017-11-05T09:44:02.317Z,5.07
2017-11-05T09:46:29.782Z,4.67
2017-11-05T09:48:57.208Z,5.53
2017-11-05T09:51:24.647Z,6.17
2017-11-05T09:53:52.083Z,5.00
2017-11-05T09:56:19.581Z,5.67
2017-11-05T09:58:47.028Z,5.37
2017-11-05T10:01:14.456Z,5.87
2017-11-05T10:03:41.864Z,5.67
2017-11-05T10:06:09.299Z,7.10
2017-11-05T10:08:36.735Z,4.40
2017-11-05T10:11:04.238Z,4.80
2017-11-05T10:13:31.685Z,4.73
2017-11-05T10:15:59.442Z,5.40
2017-11-05T10:18:27.853Z,6.17
2017-11-05T10:20:59.101Z,5.20
2017-11-05T10:23:29.204Z,5.20
2017-11-05T10:25:57.618Z,4.70
2017-11-05T10:28:26.198Z,5.00
2017-11-05T10:30:54.898Z,5.30
2017-11-05T10:33:26.074Z,4.27
2017-11-05T10:35:54.668Z,4.83
2017-11-05T10:38:23.266Z,4.80
2017-11-05T10:40:51.922Z,4.20
2017-11-05T10:43:20.900Z,4.70
2017-11-05T10:45:49.252Z,4.00
2017-11-05T10:48:17.552Z,4.17
2017-11-05T10:50:45.966Z,4.83
2017-11-05T10:53:14.344Z,4.53
2017-11-05T10:55:43.043Z,4.43
2017-11-05T10:58:11.488Z,4.87
2017-11-05T11:00:42.701Z,4.10
2017-11-05T11:03:11.228Z,4.40
2017-11-05T11:05:39.760Z,4.00
2017-11-05T11:08:08.148Z,4.50
2017-11-05T11:10:36.611Z,3.60
2017-11-05T11:13:05.247Z,4.00
2017-11-05T11:16:01.377Z,4.73
2017-11-05T11:18:52.821Z,4.53
2017-11-05T11:21:21.428Z,4.10
2017-11-05T11:23:51.140Z,4.60
2017-11-05T11:26:19.536Z,4.67
2017-11-05T11:28:48.109Z,4.53
2017-11-05T11:31:16.509Z,4.10
2017-11-05T11:33:44.967Z,4.55
2017-11-05T11:36:13.293Z,5.07
2017-11-05T11:38:41.872Z,4.27
2017-11-05T11:41:10.797Z,4.50
2017-11-05T11:43:39.296Z,4.00
2017-11-05T11:46:07.662Z,4.50
2017-11-05T11:48:36.866Z,4.50
2017-11-05T11:51:05.239Z,4.57
2017-11-05T11:53:34.103Z,4.90
2017-11-05T11:56:02.555Z,4.17
2017-11-05T11:58:30.937Z,4.37
2017-11-05T12:01:05.031Z,5.37
2017-11-05T12:03:33.950Z,5.40
2017-11-05T12:06:02.535Z,5.55
2017-11-05T12:08:33.460Z,5.80
2017-11-05T12:11:02.734Z,5.40
2017-11-05T12:13:33.622Z,5.10
2017-11-05T12:16:03.758Z,5.37
2017-11-05T12:18:32.230Z,4.93
2017-11-05T12:21:00.713Z,5.87
2017-11-05T12:23:32.779Z,5.23
2017-11-05T12:26:03.003Z,5.17
2017-11-05T12:28:31.693Z,5.47
2017-11-05T12:31:00.145Z,5.10
2017-11-05T12:33:28.695Z,5.10
2017-11-05T12:38:33.037Z,5.10
2017-11-05T12:41:01.595Z,5.30
2017-11-05T12:43:30.104Z,5.57
2017-11-05T12:46:02.467Z,5.00
2017-11-05T12:48:30.824Z,5.17
2017-11-05T12:51:00.143Z,5.27
2017-11-05T12:53:29.082Z,6.17
2017-11-05T12:56:00.887Z,6.03
2017-11-05T12:58:29.448Z,5.60
2017-11-05T13:00:57.856Z,5.28
2017-11-05T13:03:26.954Z,5.80
2017-11-05T13:06:04.921Z,5.70
2017-11-05T13:08:35.119Z,5.00
2017-11-05T13:11:04.513Z,7.25
2017-11-05T13:13:32.897Z,5.87
2017-11-05T13:16:01.307Z,6.33
2017-11-05T13:18:29.849Z,5.50
2017-11-05T13:21:03.831Z,6.13
2017-11-05T13:23:32.414Z,6.03
2017-11-05T13:26:01.869Z,6.70
2017-11-05T13:28:30.239Z,5.93
2017-11-05T13:30:58.718Z,7.53
2017-11-05T13:33:27.090Z,7.70
2017-11-05T13:35:55.568Z,7.80
2017-11-05T13:38:25.201Z,8.32
2017-11-05T13:40:53.692Z,7.80
2017-11-05T13:43:22.924Z,9.70
2017-11-05T13:45:52.227Z,8.98
2017-11-05T13:48:20.734Z,8.30
2017-11-05T13:50:49.504Z,8.25
2017-11-05T13:53:17.953Z,8.10
2017-11-05T13:55:47.344Z,8.45
2017-11-05T13:58:15.872Z,9.32
2017-11-05T14:00:44.503Z,8.67
2017-11-05T14:03:12.872Z,8.13
2017-11-05T14:06:02.063Z,9.70
2017-11-05T14:08:30.560Z,9.68
2017-11-05T14:10:59.233Z,9.60
2017-11-05T14:13:46.990Z,10.02
2017-11-05T14:18:58.567Z,9.85
2017-11-05T14:21:27.099Z,10.23
2017-11-05T14:23:55.627Z,10.70
2017-11-05T14:26:24.135Z,11.27
2017-11-05T14:28:52.637Z,11.68
2017-11-05T14:31:21.935Z,12.15
2017-11-05T14:33:56.710Z,12.30
2017-11-05T14:36:25.166Z,11.30
2017-11-05T14:38:53.582Z,12.50
2017-11-05T14:41:22.116Z,11.70
2017-11-05T14:43:52.315Z,11.75
2017-11-05T14:49:22.060Z,11.87
2017-11-05T14:51:51.651Z,12.55
2017-11-05T14:54:20.085Z,12.23
2017-11-05T14:56:48.679Z,12.10
2017-11-05T14:59:17.256Z,12.63
2017-11-05T15:01:46.111Z,11.40
2017-11-05T15:04:14.804Z,11.65
2017-11-05T15:06:43.170Z,11.82
2017-11-05T15:09:11.647Z,12.48
2017-11-05T15:11:40.075Z,12.73
2017-11-05T15:14:08.460Z,13.73
2017-11-05T15:16:37.155Z,12.37
2017-11-05T15:19:05.712Z,13.70
2017-11-05T15:21:34.345Z,12.45
2017-11-05T15:24:03.817Z,12.85
2017-11-05T15:26:32.281Z,12.15
2017-11-05T15:29:00.752Z,12.60
2017-11-05T15:31:29.249Z,13.88
2017-11-05T15:33:57.891Z,13.70
2017-11-05T15:36:26.460Z,10.90
2017-11-05T15:38:55.115Z,13.60
2017-11-05T15:41:23.560Z,11.80
2017-11-05T15:43:52.427Z,12.50
2017-11-05T15:46:20.878Z,12.85
2017-11-05T15:48:49.480Z,14.27
2017-11-05T15:51:18.221Z,12.65
2017-11-05T15:53:47.124Z,13.33
2017-11-05T15:56:15.590Z,13.23
2017-11-05T15:58:44.210Z,13.70
2017-11-05T16:01:12.868Z,13.10
2017-11-05T16:03:41.456Z,12.37
2017-11-05T16:06:09.851Z,14.57
2017-11-05T16:08:38.189Z,12.67
2017-11-05T16:11:07.624Z,13.38
2017-11-05T16:13:36.056Z,12.73
2017-11-05T16:16:05.357Z,13.30
2017-11-05T16:18:33.919Z,13.50
2017-11-05T16:21:02.289Z,12.18
2017-11-05T16:23:30.796Z,13.88
2017-11-05T16:25:59.403Z,13.32
2017-11-05T16:28:28.057Z,13.68
2017-11-05T16:30:56.539Z,12.60
2017-11-05T16:33:25.702Z,14.30
2017-11-05T16:35:54.073Z,14.37
2017-11-05T16:38:22.623Z,13.62
2017-11-05T16:40:51.779Z,14.43
2017-11-05T16:43:20.176Z,14.70
2017-11-05T16:45:50.063Z,14.90
2017-11-05T16:48:18.427Z,15.07
2017-11-05T16:50:46.879Z,15.65
2017-11-05T16:53:15.335Z,14.90
2017-11-05T16:55:43.704Z,15.73
2017-11-05T16:58:12.173Z,14.13
2017-11-05T17:00:40.812Z,14.43
2017-11-05T17:03:09.336Z,13.75
2017-11-05T17:05:37.915Z,12.63
2017-11-05T17:08:06.401Z,14.77
2017-11-05T17:10:34.814Z,13.25
2017-11-05T17:13:03.348Z,14.35
2017-11-05T17:15:32.832Z,12.70
2017-11-05T17:18:01.547Z,14.25
2017-11-05T17:20:30.557Z,14.32
2017-11-05T17:22:59.145Z,13.65
2017-11-05T17:25:28.303Z,13.57
2017-11-05T17:27:56.766Z,13.73
2017-11-05T17:30:25.490Z,13.27
2017-11-05T17:32:53.921Z,14.45
2017-11-05T17:35:22.561Z,12.27
2017-11-05T17:37:50.963Z,12.75
2017-11-05T17:40:19.973Z,11.80
2017-11-05T17:42:48.669Z,11.82
2017-11-05T17:45:17.063Z,12.18
2017-11-05T17:47:45.610Z,12.02
2017-11-05T17:50:14.106Z,11.70
2017-11-05T17:52:42.489Z,10.82
2017-11-05T17:55:10.868Z,11.77
2017-11-05T17:57:39.386Z,13.25
2017-11-05T18:00:07.785Z,11.88
2017-11-05T18:02:36.176Z,12.70
2017-11-05T18:05:04.704Z,12.02
2017-11-05T18:07:33.081Z,10.60
2017-11-05T18:10:01.602Z,12.10
2017-11-05T18:12:29.994Z,12.77
2017-11-05T18:14:58.431Z,11.45
2017-11-05T18:17:27.030Z,11.82
2017-11-05T18:19:56.047Z,13.65
2017-11-05T18:22:24.448Z,12.82
2017-11-05T18:24:53.651Z,12.80
2017-11-05T18:27:22.780Z,13.00
2017-11-05T18:29:51.144Z,13.82
2017-11-05T18:32:19.911Z,14.10
2017-11-05T18:34:48.314Z,13.55
2017-11-05T18:37:16.712Z,14.13
2017-11-05T18:39:45.267Z,14.40
2017-11-05T18:42:13.663Z,14.27
2017-11-05T18:44:42.087Z,14.50
2017-11-05T18:47:10.584Z,15.35
2017-11-05T18:49:39.134Z,14.65
2017-11-05T18:52:07.533Z,15.40
2017-11-05T18:54:36.039Z,14.65
2017-11-05T18:57:04.651Z,15.75
2017-11-05T18:59:35.247Z,16.67
2017-11-05T19:02:03.702Z,15.52
2017-11-05T19:04:34.962Z,15.57
2017-11-05T19:07:03.562Z,16.08
2017-11-05T19:09:31.995Z,17.52
2017-11-05T19:12:00.678Z,15.63
2017-11-05T19:14:29.159Z,16.48
2017-11-05T19:16:57.636Z,15.10
2017-11-05T19:19:29.012Z,15.52
2017-11-05T19:21:57.421Z,15.23
2017-11-05T19:24:27.560Z,16.33
2017-11-05T19:26:56.155Z,16.27
2017-11-05T19:29:24.755Z,16.98
2017-11-05T19:31:53.328Z,14.82
2017-11-05T19:34:21.911Z,14.95
2017-11-05T19:36:50.346Z,16.42
2017-11-05T19:39:18.740Z,14.90
2017-11-05T19:41:47.524Z,16.83
2017-11-05T19:44:18.303Z,16.20
2017-11-05T19:46:52.694Z,17.27
2017-11-05T19:49:21.132Z,16.10
2017-11-05T19:51:49.576Z,16.50
2017-11-05T19:54:19.376Z,15.70
2017-11-05T19:56:47.884Z,15.02
2017-11-05T19:59:16.432Z,14.75
2017-11-05T20:01:46.986Z,15.70
2017-11-05T20:04:15.475Z,14.82
2017-11-05T20:06:45.039Z,16.05
2017-11-05T20:09:14.072Z,15.50
2017-11-05T20:11:43.580Z,15.40
2017-11-05T20:14:12.112Z,14.75
2017-11-05T20:16:41.050Z,13.43
2017-11-05T20:22:04.524Z,14.23
2017-11-05T20:24:33.087Z,15.82
2017-11-05T20:27:01.789Z,14.77
2017-11-05T20:29:30.680Z,15.40
2017-11-05T20:31:59.079Z,14.93
2017-11-05T20:34:27.487Z,14.55
2017-11-05T20:36:57.072Z,15.32
2017-11-05T20:39:25.792Z,15.35
2017-11-05T20:41:54.225Z,13.40
2017-11-05T20:44:28.433Z,14.70
2017-11-05T20:46:57.724Z,14.50
2017-11-05T20:49:26.250Z,14.23
2017-11-05T20:51:54.789Z,14.85
2017-11-05T20:54:25.374Z,14.20
2017-11-05T20:56:53.820Z,15.00
2017-11-05T20:59:22.976Z,14.93
2017-11-05T21:01:52.386Z,15.18
2017-11-05T21:04:20.798Z,14.90
2017-11-05T21:06:49.494Z,15.68
2017-11-05T21:09:17.890Z,16.12
2017-11-05T21:11:46.400Z,15.57
2017-11-05T21:14:14.811Z,13.70
2017-11-05T21:16:43.977Z,15.75
2017-11-05T21:19:12.513Z,14.57
2017-11-05T21:21:40.937Z,15.05
2017-11-05T21:24:09.365Z,14.27
2017-11-05T21:26:37.896Z,13.52
2017-11-05T21:29:06.307Z,13.65
2017-11-05T21:31:34.677Z,15.25
2017-11-05T21:34:03.150Z,14.90
2017-11-05T21:36:31.562Z,14.45
2017-11-05T21:38:59.944Z,14.40
2017-11-05T21:41:28.454Z,13.80
2017-11-05T21:43:57.873Z,14.60
2017-11-05T21:46:26.237Z,12.85
2017-11-05T21:48:54.650Z,14.30
2017-11-05T21:51:23.182Z,14.30
2017-11-05T21:53:51.629Z,13.82
2017-11-05T21:56:20.022Z,14.07
2017-11-05T21:58:48.539Z,14.13
2017-11-05T22:01:16.946Z,13.20
2017-11-05T22:03:45.429Z,14.93
2017-11-05T22:06:13.927Z,14.32
2017-11-05T22:08:42.308Z,13.88
2017-11-05T22:11:10.977Z,13.38
2017-11-05T22:13:39.373Z,13.00
2017-11-05T22:16:07.754Z,15.00
2017-11-05T22:18:36.256Z,13.27
2017-11-05T22:21:04.647Z,13.18
2017-11-05T22:23:33.133Z,13.73
2017-11-05T22:26:01.464Z,13.25
2017-11-05T22:28:29.676Z,13.18
2017-11-05T22:30:58.130Z,13.57
2017-11-05T22:33:26.314Z,13.90
2017-11-05T22:35:54.175Z,12.75
2017-11-05T22:38:22.107Z,13.00
2017-11-05T22:40:49.818Z,13.48
2017-11-05T22:43:17.337Z,12.85
2017-11-05T22:45:44.782Z,13.48
2017-11-05T22:48:12.243Z,13.10
2017-11-05T22:50:40.633Z,13.23
2017-11-05T22:53:08.139Z,14.05
2017-11-05T22:55:35.590Z,13.50
2017-11-05T22:58:03.040Z,14.43
2017-11-05T23:00:30.478Z,14.40
2017-11-05T23:02:57.916Z,14.15
2017-11-05T23:05:25.352Z,13.57
2017-11-05T23:07:52.792Z,13.85
2017-11-05T23:10:20.235Z,13.93
2017-11-05T23:12:47.657Z,15.85
2017-11-05T23:15:15.083Z,15.43
2017-11-05T23:17:42.525Z,15.90
2017-11-05T23:20:09.944Z,16.92
2017-11-05T23:22:37.393Z,15.40
2017-11-05T23:25:04.811Z,16.45
2017-11-05T23:27:32.232Z,17.15
2017-11-05T23:29:59.668Z,15.43
2017-11-05T23:32:27.097Z,17.83
2017-11-05T23:34:54.520Z,15.75
2017-11-05T23:37:21.960Z,16.35
2017-11-05T23:39:49.391Z,16.05
2017-11-05T23:42:16.818Z,16.35
2017-11-05T23:44:44.264Z,15.75
2017-11-05T23:47:11.688Z,17.12
2017-11-05T23:49:39.118Z,17.60
2017-11-05T23:52:06.580Z,16.35
2017-11-05T23:54:34.024Z,15.57
2017-11-05T23:57:01.447Z,15.85
2017-11-05T23:59:28.876Z,18.70
